EGLL/LHR METAR and TAF weather

Enter ICAO airport designator
Station Type Date Time Source
EGLL METAR 2022/12/04 05:20 UTC NOAA

EGLL 040520Z AUTO 05006KT 010V080 9999 OVC013 04/02 Q1015 NOSIG


Station Type Date Time Source
EGLL Decoded METAR 2022/12/04 05:20 UTC NOAA

London / Heathrow Airport, United Kingdom (EGLL) 51-29N 000-27W 0M
Dec 04, 2022 - 12:20 AM EST / 2022.12.04 0520 UTC
Wind: from the NE (050 degrees) at 7 MPH (6 KT) (direction variable):0
Visibility: greater than 7 mile(s):0
Sky conditions: overcast
Temperature: 39 F (4 C)
Dew Point: 35 F (2 C)
Relative Humidity: 86%
Pressure (altimeter): 29.97 in. Hg (1015 hPa)
ob: EGLL 040520Z AUTO 05006KT 010V080 9999 OVC013 04/02 Q1015 NOSIG
cycle: 5

Station Type Date Time Source
EGLL TAF 2022/12/04 06:09 UTC NOAA

TAF EGLL 040456Z 0406/0512 03008KT 9999 BKN025
TEMPO 0406/0412 BKN014 PROB30
TEMPO 0406/0410 8000 -RADZ BKN009 PROB40
TEMPO 0412/0421 BKN012
TEMPO 0421/0512 BKN012 PROB30
TEMPO 0502/0511 8000 -RADZ BKN007

Example: see airport list